Time;durP1;ratioP1;P1;durP2;ratioP2;P2;SDS_P1;SDS_P2;PMS_P1;PMS_P2;Temp;Humidity;BMP_temperature;BMP_pressure;BME280_temperature;BME280_humidity;BME280_pressure;Samples;Min_cycle;Max_cycle;Signal;HPM_P1;HPM_P2
2022/10/22 00:02:18;;;;;;;0.63;0.63;;;20.70;91.10;;;;;;6183144;23;47328;-72
2022/10/22 00:04:45;;;;;;;0.88;0.73;;;20.60;91.10;;;;;;6181943;23;46266;-72
2022/10/22 00:07:12;;;;;;;0.90;0.60;;;20.70;91.10;;;;;;6182698;23;45462;-72
2022/10/22 00:09:39;;;;;;;1.35;0.77;;;20.70;91.10;;;;;;6183728;23;45521;-72
2022/10/22 00:12:06;;;;;;;0.75;0.60;;;20.60;91.00;;;;;;6183031;23;46034;-72
2022/10/22 00:14:33;;;;;;;1.20;0.50;;;20.60;91.10;;;;;;6182319;23;45259;-72
2022/10/22 00:17:01;;;;;;;0.63;0.50;;;20.60;91.10;;;;;;6183023;23;45287;-72
2022/10/22 00:19:28;;;;;;;1.10;0.68;;;20.60;91.10;;;;;;6182524;23;45507;-72
2022/10/22 00:21:55;;;;;;;1.05;0.70;;;20.60;91.10;;;;;;6183073;23;47514;-72
2022/10/22 00:24:22;;;;;;;3.08;0.98;;;20.60;91.10;;;;;;6181985;23;45857;-73
2022/10/22 00:26:48;;;;;;;0.63;0.57;;;20.60;91.10;;;;;;6182258;23;45312;-72
2022/10/22 00:29:17;;;;;;;1.05;0.70;;;20.60;91.20;;;;;;6183419;23;45519;-71
2022/10/22 00:31:48;;;;;;;2.05;0.90;;;20.60;91.10;;;;;;6180655;23;47478;-73
2022/10/22 00:34:16;;;;;;;1.23;0.60;;;20.60;91.10;;;;;;6181595;23;45361;-72
2022/10/22 00:36:44;;;;;;;1.58;0.50;;;20.60;91.10;;;;;;6183324;23;45277;-72
2022/10/22 00:39:11;;;;;;;1.08;0.73;;;20.60;91.20;;;;;;6183683;23;45506;-72
2022/10/22 00:41:38;;;;;;;2.00;0.70;;;20.60;91.10;;;;;;6183489;23;45655;-73
2022/10/22 00:44:06;;;;;;;0.88;0.68;;;20.60;91.10;;;;;;6181223;23;45215;-72
2022/10/22 00:46:33;;;;;;;0.68;0.63;;;20.60;91.10;;;;;;6182805;23;45311;-72
2022/10/22 00:49:02;;;;;;;0.65;0.60;;;20.60;91.10;;;;;;6183656;23;45232;-72
2022/10/22 00:51:33;;;;;;;1.30;0.65;;;20.60;91.10;;;;;;6183536;23;45308;-72
2022/10/22 00:54:04;;;;;;;1.25;0.65;;;20.60;91.10;;;;;;6183059;23;45301;-72
2022/10/22 00:56:31;;;;;;;0.52;0.50;;;20.60;91.10;;;;;;6183771;23;45358;-72
2022/10/22 00:59:00;;;;;;;0.73;0.60;;;20.60;91.10;;;;;;6183740;23;45281;-72
2022/10/22 01:01:29;;;;;;;0.70;0.40;;;20.60;91.10;;;;;;6182859;23;46720;-72
2022/10/22 01:03:56;;;;;;;0.85;0.50;;;20.60;91.00;;;;;;6182657;23;45360;-72
2022/10/22 01:06:26;;;;;;;0.60;0.60;;;20.60;91.10;;;;;;6183096;23;45256;-73
2022/10/22 01:09:03;;;;;;;0.70;0.47;;;20.60;91.10;;;;;;6183614;23;45415;-72
2022/10/22 01:11:40;;;;;;;2.80;0.80;;;20.60;91.10;;;;;;6183590;23;45338;-72
2022/10/22 01:14:15;;;;;;;0.85;0.65;;;20.60;91.00;;;;;;6183022;23;45404;-72
2022/10/22 01:16:50;;;;;;;1.55;0.90;;;20.60;91.50;;;;;;6183793;23;45209;-72
2022/10/22 01:19:40;;;;;;;0.70;0.43;;;20.60;91.00;;;;;;6183617;23;45274;-72
2022/10/22 01:22:12;;;;;;;0.93;0.70;;;20.60;91.10;;;;;;6183552;23;45174;-72
2022/10/22 01:24:55;;;;;;;0.85;0.60;;;20.60;91.10;;;;;;6182867;23;45929;-72
2022/10/22 01:27:31;;;;;;;2.35;0.50;;;20.60;91.00;;;;;;6183707;23;45453;-72
2022/10/22 01:30:03;;;;;;;1.98;0.85;;;20.60;91.00;;;;;;6183285;23;45429;-72
2022/10/22 01:32:33;;;;;;;1.83;0.70;;;20.60;91.00;;;;;;6183292;23;48119;-72
2022/10/22 01:35:04;;;;;;;1.63;0.63;;;20.60;91.00;;;;;;6181895;23;45209;-72
2022/10/22 01:37:34;;;;;;;1.67;0.85;;;20.60;91.00;;;;;;6183543;23;45401;-72
2022/10/22 01:40:02;;;;;;;1.10;0.60;;;20.60;91.00;;;;;;6184040;23;45389;-71
2022/10/22 01:42:29;;;;;;;1.10;0.60;;;20.60;91.00;;;;;;6181633;23;48377;-72
2022/10/22 01:44:56;;;;;;;1.60;0.70;;;20.60;91.00;;;;;;6183222;23;45292;-71
2022/10/22 01:47:39;;;;;;;1.00;0.80;;;20.60;91.00;;;;;;6183162;23;45269;-72
2022/10/22 01:50:32;;;;;;;1.55;0.60;;;20.60;91.00;;;;;;6183687;23;45439;-72
2022/10/22 01:53:13;;;;;;;1.00;0.63;;;20.60;91.00;;;;;;6183189;23;47107;-72
2022/10/22 01:55:50;;;;;;;0.93;0.60;;;20.60;91.00;;;;;;6183868;23;45480;-73
2022/10/22 01:58:24;;;;;;;1.20;0.88;;;20.60;91.00;;;;;;6183406;23;45236;-72
2022/10/22 02:00:59;;;;;;;2.28;0.70;;;20.60;91.00;;;;;;6183300;23;45290;-72
2022/10/22 02:03:32;;;;;;;0.50;0.50;;;20.60;91.00;;;;;;6182829;23;47123;-72
2022/10/22 02:06:05;;;;;;;0.98;0.55;;;20.60;91.00;;;;;;6183819;23;45606;-72
2022/10/22 02:08:35;;;;;;;0.73;0.60;;;20.60;91.00;;;;;;6184933;23;45197;-72
2022/10/22 02:11:04;;;;;;;2.05;0.70;;;20.60;91.00;;;;;;6184296;23;45217;-72
2022/10/22 02:13:35;;;;;;;0.82;0.60;;;20.60;91.00;;;;;;6184001;23;45342;-72
2022/10/22 02:16:04;;;;;;;0.80;0.60;;;20.60;91.00;;;;;;6184146;23;45243;-72
2022/10/22 02:18:35;;;;;;;1.20;0.70;;;20.60;91.00;;;;;;6184584;23;45209;-72
2022/10/22 02:21:02;;;;;;;1.00;0.68;;;20.60;90.90;;;;;;6184836;23;45372;-72
2022/10/22 02:23:29;;;;;;;2.92;0.68;;;20.60;90.90;;;;;;6183515;23;46371;-72
2022/10/22 02:26:03;;;;;;;0.70;0.50;;;20.60;91.00;;;;;;6184670;23;45383;-72
2022/10/22 02:28:36;;;;;;;0.70;0.60;;;20.60;91.00;;;;;;6184304;23;45292;-72
2022/10/22 02:31:08;;;;;;;0.95;0.70;;;20.60;91.00;;;;;;6184522;23;45401;-72
2022/10/22 02:33:42;;;;;;;1.73;0.70;;;20.60;91.00;;;;;;6182901;23;45282;-73
2022/10/22 02:36:09;;;;;;;1.23;0.90;;;20.60;91.00;;;;;;6184427;23;45216;-72
2022/10/22 02:38:38;;;;;;;1.00;0.70;;;20.60;91.00;;;;;;6184123;23;45237;-73
2022/10/22 02:41:05;;;;;;;1.52;0.70;;;20.60;91.00;;;;;;6184735;23;45292;-72
2022/10/22 02:43:40;;;;;;;0.65;0.63;;;20.60;91.00;;;;;;6182815;23;47508;-72
2022/10/22 02:46:07;;;;;;;2.15;0.65;;;20.60;91.00;;;;;;6183818;23;45958;-72
2022/10/22 02:48:34;;;;;;;1.23;0.60;;;20.60;91.00;;;;;;6184492;23;45227;-72
2022/10/22 02:51:02;;;;;;;1.02;0.60;;;20.60;91.00;;;;;;6184161;23;45210;-72
2022/10/22 02:53:29;;;;;;;0.77;0.50;;;20.60;91.00;;;;;;6183409;23;46306;-72
2022/10/22 02:55:55;;;;;;;2.47;0.80;;;20.60;91.00;;;;;;6183337;23;45400;-72
2022/10/22 02:58:22;;;;;;;0.88;0.60;;;20.60;91.00;;;;;;6183372;23;45330;-72
2022/10/22 03:00:49;;;;;;;1.10;0.70;;;20.60;91.00;;;;;;6183472;23;45358;-72
2022/10/22 03:03:16;;;;;;;0.65;0.57;;;20.60;91.00;;;;;;6181721;23;45338;-72
2022/10/22 03:05:43;;;;;;;0.95;0.70;;;20.60;91.00;;;;;;6183223;23;45257;-72
2022/10/22 03:08:11;;;;;;;4.47;0.70;;;20.60;91.00;;;;;;6184379;23;45273;-72
2022/10/22 03:10:38;;;;;;;1.63;0.70;;;20.60;91.00;;;;;;6184305;23;45173;-72
2022/10/22 03:13:06;;;;;;;0.63;0.43;;;20.60;90.90;;;;;;6183604;23;47027;-72
2022/10/22 03:15:32;;;;;;;2.15;0.93;;;20.60;90.90;;;;;;6183617;23;45222;-72
2022/10/22 03:17:59;;;;;;;1.25;0.57;;;20.60;90.90;;;;;;6184463;23;45321;-72
2022/10/22 03:20:26;;;;;;;1.05;0.60;;;20.60;90.90;;;;;;6183887;23;45285;-72
2022/10/22 03:22:53;;;;;;;1.05;0.70;;;20.60;90.90;;;;;;6184431;23;46332;-72
2022/10/22 03:25:23;;;;;;;1.48;0.80;;;20.60;90.90;;;;;;6184020;23;45205;-72
2022/10/22 03:27:52;;;;;;;1.67;0.80;;;20.60;91.00;;;;;;6183620;23;45415;-72
2022/10/22 03:30:19;;;;;;;0.50;0.50;;;20.60;90.90;;;;;;6184318;23;45416;-72
2022/10/22 03:32:46;;;;;;;2.10;0.60;;;20.60;90.90;;;;;;6183505;23;48140;-72
2022/10/22 03:35:12;;;;;;;0.85;0.68;;;20.60;90.90;;;;;;6182039;23;45450;-72
2022/10/22 03:37:40;;;;;;;2.13;0.73;;;20.60;90.90;;;;;;6183642;23;45617;-72
2022/10/22 03:40:10;;;;;;;1.20;0.80;;;20.60;90.90;;;;;;6184424;23;45300;-72
2022/10/22 03:42:38;;;;;;;0.80;0.80;;;20.60;90.90;;;;;;6183332;23;47557;-72
2022/10/22 03:45:06;;;;;;;0.60;0.60;;;20.60;90.90;;;;;;6183258;23;45333;-72
2022/10/22 03:47:33;;;;;;;1.73;0.68;;;20.60;90.90;;;;;;6184329;23;45449;-72
2022/10/22 03:50:00;;;;;;;1.20;0.70;;;20.60;90.90;;;;;;6184442;23;45321;-72
2022/10/22 03:52:26;;;;;;;0.98;0.75;;;20.60;90.90;;;;;;6183316;23;46349;-72
2022/10/22 03:54:53;;;;;;;1.10;0.65;;;20.60;90.90;;;;;;6183278;23;45197;-72
2022/10/22 03:57:20;;;;;;;0.60;0.60;;;20.60;90.90;;;;;;6183016;23;45265;-72
2022/10/22 03:59:49;;;;;;;0.90;0.70;;;20.60;90.90;;;;;;6184482;23;45387;-72
2022/10/22 04:02:17;;;;;;;1.13;0.70;;;20.60;90.90;;;;;;6183363;23;45458;-72
2022/10/22 04:04:43;;;;;;;0.60;0.50;;;20.60;90.80;;;;;;6182595;23;45293;-72
2022/10/22 04:07:10;;;;;;;1.42;0.65;;;20.60;90.80;;;;;;6182988;23;45298;-72
2022/10/22 04:09:37;;;;;;;2.35;0.75;;;20.60;90.80;;;;;;6183790;23;45482;-72
2022/10/22 04:12:06;;;;;;;0.93;0.60;;;20.60;90.80;;;;;;6183805;23;46577;-72
2022/10/22 04:14:33;;;;;;;0.70;0.65;;;20.60;90.80;;;;;;6182777;23;45374;-72
2022/10/22 04:17:02;;;;;;;1.17;0.70;;;20.60;90.80;;;;;;6184471;23;45330;-72
2022/10/22 04:19:28;;;;;;;0.90;0.80;;;20.60;90.80;;;;;;6184081;23;45541;-72
2022/10/22 04:21:57;;;;;;;1.13;0.80;;;20.60;90.80;;;;;;6183538;23;47050;-72
2022/10/22 04:24:24;;;;;;;0.90;0.50;;;20.60;90.80;;;;;;6183489;23;45184;-72
2022/10/22 04:26:53;;;;;;;1.08;0.73;;;20.60;90.80;;;;;;6183496;23;45233;-72
2022/10/22 04:29:20;;;;;;;1.30;0.60;;;20.60;90.80;;;;;;6184525;23;45264;-72
2022/10/22 04:31:46;;;;;;;1.63;0.80;;;20.60;90.80;;;;;;6183611;23;45298;-72
2022/10/22 04:34:15;;;;;;;1.13;0.80;;;20.60;90.70;;;;;;6183443;23;45424;-73
2022/10/22 04:36:41;;;;;;;2.65;0.60;;;20.60;90.70;;;;;;6183555;23;45274;-72
2022/10/22 04:39:08;;;;;;;1.25;0.60;;;20.60;90.70;;;;;;6183613;23;45275;-72
2022/10/22 04:41:37;;;;;;;0.85;0.57;;;20.60;90.60;;;;;;6183149;23;47097;-72
2022/10/22 04:44:05;;;;;;;1.13;0.70;;;20.60;90.60;;;;;;6181557;23;45291;-72
2022/10/22 04:46:34;;;;;;;0.70;0.60;;;20.60;90.60;;;;;;6183602;23;45332;-72
2022/10/22 04:49:02;;;;;;;0.70;0.70;;;20.60;90.60;;;;;;6183571;23;45147;-72
2022/10/22 04:51:31;;;;;;;0.85;0.70;;;20.50;90.60;;;;;;6183475;23;47424;-72
2022/10/22 04:53:58;;;;;;;1.88;1.10;;;20.60;90.60;;;;;;6183270;23;46842;-72
2022/10/22 04:56:27;;;;;;;1.23;0.90;;;20.60;90.50;;;;;;6183360;23;45321;-72
2022/10/22 04:58:56;;;;;;;1.60;0.75;;;20.60;90.60;;;;;;6183908;23;45376;-72
2022/10/22 05:01:24;;;;;;;1.67;0.82;;;20.50;90.50;;;;;;6183155;23;46952;-72
2022/10/22 05:03:53;;;;;;;1.85;0.63;;;20.60;90.60;;;;;;6183422;23;45150;-72
2022/10/22 05:06:20;;;;;;;0.90;0.70;;;20.60;90.50;;;;;;6183610;23;45306;-72
2022/10/22 05:08:51;;;;;;;1.52;0.75;;;20.60;90.40;;;;;;6183305;23;45529;-72
2022/10/22 05:11:20;;;;;;;1.02;0.77;;;20.60;90.50;;;;;;6183630;23;47372;-72
2022/10/22 05:13:47;;;;;;;0.68;0.57;;;20.60;90.50;;;;;;6182949;23;45550;-72
2022/10/22 05:16:14;;;;;;;0.80;0.60;;;20.60;90.50;;;;;;6183766;23;45460;-72
2022/10/22 05:18:43;;;;;;;1.25;0.80;;;20.60;90.50;;;;;;6183630;23;45219;-72
2022/10/22 05:21:11;;;;;;;1.05;0.60;;;20.60;90.50;;;;;;6183229;23;47369;-72
2022/10/22 05:23:38;;;;;;;0.52;0.50;;;20.60;90.50;;;;;;6183371;23;45517;-72
2022/10/22 05:26:08;;;;;;;0.73;0.73;;;20.60;90.50;;;;;;6183225;23;45270;-72
2022/10/22 05:28:36;;;;;;;0.60;0.60;;;20.60;90.50;;;;;;6183742;23;45558;-72
2022/10/22 05:31:03;;;;;;;1.98;0.55;;;20.60;90.40;;;;;;6182885;23;47347;-72
2022/10/22 05:33:32;;;;;;;1.40;0.70;;;20.60;90.40;;;;;;6183049;23;45248;-72
2022/10/22 05:35:59;;;;;;;1.02;0.70;;;20.60;90.30;;;;;;6183281;23;45319;-71
2022/10/22 05:38:26;;;;;;;1.10;0.80;;;20.50;90.40;;;;;;6182662;23;45321;-72
2022/10/22 05:41:00;;;;;;;0.60;0.60;;;20.60;90.40;;;;;;6183238;23;46626;-73
2022/10/22 05:43:28;;;;;;;0.68;0.63;;;20.60;90.40;;;;;;6181228;23;45343;-72
2022/10/22 05:45:55;;;;;;;1.33;0.80;;;20.60;90.40;;;;;;6183844;23;45202;-72
2022/10/22 05:48:22;;;;;;;1.33;0.70;;;20.60;90.40;;;;;;6183083;23;45412;-72
2022/10/22 05:50:50;;;;;;;1.35;0.70;;;20.50;90.40;;;;;;6183168;23;46948;-72
2022/10/22 05:53:17;;;;;;;0.77;0.68;;;20.60;90.40;;;;;;6181505;23;45302;-72
2022/10/22 05:55:44;;;;;;;1.42;0.75;;;20.60;90.50;;;;;;6182210;23;45405;-72
2022/10/22 05:58:12;;;;;;;1.80;0.70;;;20.60;90.40;;;;;;6182586;23;45436;-72
2022/10/22 06:00:40;;;;;;;0.50;0.50;;;20.60;90.40;;;;;;6182347;23;46699;-72
2022/10/22 06:03:07;;;;;;;1.40;0.77;;;20.50;90.40;;;;;;6182232;23;45357;-72
2022/10/22 06:05:35;;;;;;;1.33;0.75;;;20.60;90.40;;;;;;6182269;23;45387;-72
2022/10/22 06:08:01;;;;;;;0.65;0.60;;;20.60;90.40;;;;;;6182919;23;45228;-72
2022/10/22 06:10:28;;;;;;;1.13;0.60;;;20.60;90.40;;;;;;6183166;23;46504;-72
2022/10/22 06:12:55;;;;;;;0.90;0.70;;;20.60;90.40;;;;;;6182653;23;45220;-72
2022/10/22 06:15:22;;;;;;;0.77;0.63;;;20.60;90.40;;;;;;6182629;23;45229;-72
2022/10/22 06:17:50;;;;;;;0.68;0.60;;;20.60;90.80;;;;;;6182919;23;45274;-72
2022/10/22 06:20:17;;;;;;;1.23;0.65;;;20.60;90.40;;;;;;6182793;23;45297;-72
2022/10/22 06:22:44;;;;;;;1.33;0.77;;;20.60;90.40;;;;;;6183197;23;45206;-72
2022/10/22 06:25:11;;;;;;;0.93;0.55;;;20.60;90.40;;;;;;6182670;23;45497;-72
2022/10/22 06:27:38;;;;;;;1.52;0.60;;;20.60;90.40;;;;;;6183314;23;45432;-72
2022/10/22 06:30:05;;;;;;;0.82;0.50;;;20.60;90.30;;;;;;6182101;23;46631;-72
2022/10/22 06:32:32;;;;;;;0.82;0.50;;;20.60;90.40;;;;;;6182940;23;45237;-72
2022/10/22 06:35:00;;;;;;;0.90;0.70;;;20.60;90.40;;;;;;6182301;23;45322;-72
2022/10/22 06:37:27;;;;;;;0.88;0.70;;;20.60;90.40;;;;;;6182509;23;45527;-72
2022/10/22 06:39:54;;;;;;;1.63;0.65;;;20.60;90.30;;;;;;6182884;23;48198;-72
2022/10/22 06:42:20;;;;;;;0.68;0.68;;;20.60;90.50;;;;;;6180458;23;45378;-72
2022/10/22 06:44:47;;;;;;;0.95;0.60;;;20.60;90.40;;;;;;6179762;23;45307;-71
2022/10/22 06:47:14;;;;;;;1.00;0.60;;;20.60;90.40;;;;;;6181797;23;45529;-72
2022/10/22 06:49:41;;;;;;;1.48;0.80;;;20.60;90.40;;;;;;6183283;23;46606;-73
2022/10/22 06:52:09;;;;;;;0.70;0.60;;;20.50;90.40;;;;;;6183795;23;45292;-72
2022/10/22 06:54:36;;;;;;;0.80;0.55;;;20.50;90.40;;;;;;6183304;23;45383;-72
2022/10/22 06:57:03;;;;;;;0.88;0.70;;;20.50;90.40;;;;;;6184643;23;45287;-72
2022/10/22 06:59:30;;;;;;;1.02;0.55;;;20.50;90.40;;;;;;6183058;23;48197;-71
2022/10/22 07:01:56;;;;;;;0.93;0.80;;;20.50;90.40;;;;;;6183553;23;45461;-71
2022/10/22 07:04:23;;;;;;;1.55;0.65;;;20.50;90.40;;;;;;6183088;23;45232;-72
2022/10/22 07:06:50;;;;;;;1.35;0.63;;;20.50;90.40;;;;;;6182114;23;45338;-71
2022/10/22 07:09:18;;;;;;;1.63;0.70;;;20.50;90.40;;;;;;6183084;23;48749;-71
2022/10/22 07:11:46;;;;;;;1.25;0.50;;;20.50;90.40;;;;;;6182549;23;45362;-70
2022/10/22 07:14:14;;;;;;;1.98;0.60;;;20.50;90.40;;;;;;6183331;23;45365;-71
2022/10/22 07:16:41;;;;;;;0.75;0.60;;;20.50;90.40;;;;;;6183438;23;45253;-71
2022/10/22 07:19:08;;;;;;;0.80;0.63;;;20.50;90.40;;;;;;6183363;23;47145;-72
2022/10/22 07:21:35;;;;;;;1.20;0.70;;;20.60;90.40;;;;;;6184175;23;45215;-71
2022/10/22 07:24:02;;;;;;;0.95;0.70;;;20.50;90.40;;;;;;6182742;23;45416;-72
2022/10/22 07:26:31;;;;;;;0.90;0.60;;;20.60;90.50;;;;;;6183875;23;45273;-72
2022/10/22 07:28:58;;;;;;;3.05;0.80;;;20.50;90.40;;;;;;6182963;23;45441;-72
2022/10/22 07:31:25;;;;;;;0.85;0.70;;;20.50;90.40;;;;;;6183297;23;46302;-71
2022/10/22 07:33:52;;;;;;;0.52;0.50;;;20.50;90.40;;;;;;6183585;23;45211;-72
2022/10/22 07:36:19;;;;;;;0.80;0.50;;;20.50;90.40;;;;;;6183251;23;45309;-72
2022/10/22 07:38:46;;;;;;;0.98;0.52;;;20.50;90.40;;;;;;6183043;23;47513;-72
2022/10/22 07:41:14;;;;;;;0.50;0.50;;;20.50;90.40;;;;;;6182984;23;45193;-71
2022/10/22 07:43:43;;;;;;;2.65;0.70;;;20.50;90.50;;;;;;6182440;23;45293;-71
2022/10/22 07:46:10;;;;;;;0.77;0.50;;;20.50;90.40;;;;;;6183564;23;45522;-71
2022/10/22 07:48:37;;;;;;;1.52;0.60;;;20.50;90.40;;;;;;6183029;23;47936;-72
2022/10/22 07:51:05;;;;;;;0.35;0.35;;;20.50;90.50;;;;;;6155198;23;45362;-73
2022/10/22 07:53:32;;;;;;;0.50;0.50;;;20.50;90.40;;;;;;6181267;23;45438;-71
2022/10/22 07:55:59;;;;;;;0.95;0.50;;;20.50;90.50;;;;;;6183376;23;45444;-72
2022/10/22 07:58:26;;;;;;;1.67;0.70;;;20.50;90.50;;;;;;6183473;23;47490;-71
2022/10/22 08:00:57;;;;;;;0.50;0.45;;;20.50;90.50;;;;;;6182384;23;45305;-72
2022/10/22 08:03:24;;;;;;;0.85;0.50;;;20.50;90.50;;;;;;6183621;23;45278;-71
2022/10/22 08:05:52;;;;;;;1.30;0.50;;;20.50;90.40;;;;;;6182371;23;45401;-72
2022/10/22 08:08:19;;;;;;;0.47;0.40;;;20.50;90.40;;;;;;6183035;23;46264;-71
2022/10/22 08:10:47;;;;;;;0.65;0.63;;;20.60;90.50;;;;;;6181904;23;45227;-71
2022/10/22 08:13:15;;;;;;;1.10;0.60;;;20.60;90.50;;;;;;6183335;23;45325;-71
2022/10/22 08:15:42;;;;;;;1.08;0.50;;;20.60;90.50;;;;;;6182640;23;45285;-74
2022/10/22 08:18:11;;;;;;;20.40;2.20;;;20.50;90.40;;;;;;6182575;23;46428;-72
2022/10/22 08:20:37;;;;;;;8.25;0.98;;;20.60;90.80;;;;;;6183529;23;45312;-73
2022/10/22 08:23:04;;;;;;;3.85;1.27;;;20.60;90.70;;;;;;6183209;23;45346;-72
2022/10/22 08:25:32;;;;;;;5.25;0.85;;;20.60;90.60;;;;;;6184034;23;45227;-72
2022/10/22 08:27:59;;;;;;;2.08;0.80;;;20.50;90.60;;;;;;6183560;23;47329;-72
2022/10/22 08:30:28;;;;;;;6.60;1.15;;;20.50;90.60;;;;;;6183287;23;45245;-72
2022/10/22 08:32:55;;;;;;;4.60;1.00;;;20.50;90.60;;;;;;6183845;23;45472;-72
2022/10/22 08:35:23;;;;;;;4.03;0.75;;;20.50;90.60;;;;;;6182671;23;45242;-72
2022/10/22 08:37:50;;;;;;;1.90;0.57;;;20.50;90.50;;;;;;6183552;23;45327;-73
2022/10/22 08:40:24;;;;;;;1.27;0.60;;;20.50;90.50;;;;;;6183883;23;45185;-72
2022/10/22 08:43:28;;;;;;;1.67;0.50;;;20.50;90.50;;;;;;6182151;23;45206;-72
2022/10/22 08:46:07;;;;;;;1.42;0.70;;;20.50;90.50;;;;;;6112970;23;45131;-72
2022/10/22 08:48:45;;;;;;;2.45;0.90;;;20.50;90.50;;;;;;6182898;23;47277;-72
2022/10/22 08:51:17;;;;;;;0.70;0.60;;;20.50;90.50;;;;;;6183005;23;45524;-72
2022/10/22 08:53:57;;;;;;;1.92;0.52;;;20.50;90.50;;;;;;6181943;23;45313;-72
2022/10/22 08:56:24;;;;;;;1.02;0.70;;;20.50;90.50;;;;;;6183161;23;45387;-72
2022/10/22 08:58:57;;;;;;;2.17;0.60;;;20.60;90.40;;;;;;6183221;23;45303;-72
2022/10/22 09:01:32;;;;;;;2.55;0.68;;;20.60;90.50;;;;;;6183778;23;45317;-72
2022/10/22 09:04:04;;;;;;;2.33;0.82;;;20.60;90.40;;;;;;6184327;23;45323;-73
2022/10/22 09:06:35;;;;;;;2.08;0.65;;;20.60;90.40;;;;;;6184634;23;45266;-72
2022/10/22 09:09:09;;;;;;;1.88;0.52;;;20.60;90.40;;;;;;6184548;23;46250;-73
2022/10/22 09:11:39;;;;;;;2.35;0.57;;;20.60;90.40;;;;;;6184114;23;45125;-73
2022/10/22 09:14:06;;;;;;;0.73;0.50;;;20.60;90.40;;;;;;6184695;23;45480;-74
2022/10/22 09:16:38;;;;;;;1.42;0.70;;;20.60;90.40;;;;;;6185065;23;45175;-73
2022/10/22 09:19:18;;;;;;;2.92;0.52;;;20.60;90.40;;;;;;6184357;23;47717;-72
2022/10/22 09:21:53;;;;;;;1.67;0.65;;;20.60;90.40;;;;;;6185029;23;45369;-73
2022/10/22 09:24:30;;;;;;;0.75;0.43;;;20.70;90.40;;;;;;6184913;23;45381;-73
2022/10/22 09:26:58;;;;;;;0.52;0.30;;;20.70;90.40;;;;;;6185416;23;45169;-73
2022/10/22 09:29:32;;;;;;;1.75;0.65;;;20.70;90.40;;;;;;6184684;23;45403;-73
2022/10/22 09:31:59;;;;;;;2.92;0.47;;;20.70;90.40;;;;;;6185147;23;45236;-74
2022/10/22 09:34:25;;;;;;;2.50;0.70;;;20.70;90.40;;;;;;6184934;23;45265;-73
2022/10/22 09:36:59;;;;;;;1.55;0.50;;;20.70;90.40;;;;;;6184966;23;45266;-73
2022/10/22 09:39:28;;;;;;;0.88;0.45;;;20.70;90.40;;;;;;6184651;23;47107;-73
2022/10/22 09:41:55;;;;;;;0.80;0.32;;;20.70;90.40;;;;;;6184517;23;45230;-72
2022/10/22 09:44:22;;;;;;;1.95;0.75;;;20.70;90.40;;;;;;6184905;23;45257;-73
2022/10/22 09:46:49;;;;;;;1.27;0.50;;;20.70;90.40;;;;;;6183503;23;45659;-73
2022/10/22 09:49:18;;;;;;;0.77;0.43;;;20.70;90.40;;;;;;6184217;23;46214;-73
2022/10/22 09:51:51;;;;;;;0.95;0.40;;;20.70;90.40;;;;;;6184608;23;45262;-73
2022/10/22 09:54:23;;;;;;;1.73;0.60;;;20.70;90.30;;;;;;6185996;23;45209;-73
2022/10/22 09:56:56;;;;;;;2.53;0.50;;;20.70;90.30;;;;;;6185456;23;45234;-74
2022/10/22 09:59:31;;;;;;;1.75;0.60;;;20.70;90.30;;;;;;6183746;23;48092;-73
2022/10/22 10:02:02;;;;;;;1.73;0.60;;;20.70;90.20;;;;;;6183988;23;45208;-73
2022/10/22 10:04:35;;;;;;;0.60;0.40;;;20.70;90.20;;;;;;6183548;23;45405;-73
2022/10/22 10:07:02;;;;;;;0.73;0.40;;;20.70;90.20;;;;;;6183142;23;45491;-73
2022/10/22 10:09:34;;;;;;;0.95;0.40;;;20.70;90.20;;;;;;6184176;23;48223;-73
2022/10/22 10:12:12;;;;;;;1.13;0.47;;;20.70;90.20;;;;;;6184482;23;45676;-73
2022/10/22 10:14:49;;;;;;;1.25;0.50;;;20.70;90.20;;;;;;6183383;23;45314;-73
2022/10/22 10:17:27;;;;;;;1.23;0.50;;;20.70;90.20;;;;;;6184230;23;45355;-73
2022/10/22 10:20:03;;;;;;;1.10;0.50;;;20.70;90.20;;;;;;6183198;23;48576;-72
2022/10/22 10:22:53;;;;;;;0.70;0.50;;;20.70;90.30;;;;;;6183228;23;45145;-73
2022/10/22 10:25:33;;;;;;;0.63;0.40;;;20.60;90.30;;;;;;6184401;23;45297;-72
2022/10/22 10:28:07;;;;;;;0.75;0.50;;;20.70;90.70;;;;;;6184466;23;45409;-71
2022/10/22 10:30:42;;;;;;;1.60;0.65;;;20.70;90.30;;;;;;6183716;23;46170;-72
2022/10/22 10:33:23;;;;;;;1.92;0.70;;;20.70;90.40;;;;;;6185468;23;45938;-73
2022/10/22 10:35:55;;;;;;;2.35;0.80;;;20.70;90.30;;;;;;6184004;23;45325;-73
2022/10/22 10:38:38;;;;;;;0.93;0.70;;;20.70;90.30;;;;;;6182933;23;45277;-72
2022/10/22 10:41:17;;;;;;;1.38;0.50;;;20.70;90.20;;;;;;6184881;23;46184;-73
2022/10/22 10:44:00;;;;;;;3.35;0.60;;;20.70;90.30;;;;;;6184466;23;45675;-71
2022/10/22 10:46:42;;;;;;;1.20;0.60;;;20.70;90.20;;;;;;6184088;23;45239;-72
2022/10/22 10:49:10;;;;;;;0.47;0.45;;;20.70;90.20;;;;;;6183185;23;45213;-73
2022/10/22 10:51:46;;;;;;;1.38;0.70;;;20.70;90.20;;;;;;6184688;23;47778;-72
2022/10/22 10:54:32;;;;;;;1.60;0.47;;;20.70;90.20;;;;;;6182905;23;45403;-72
2022/10/22 10:57:03;;;;;;;2.55;0.60;;;20.70;90.10;;;;;;6184207;23;45443;-72
2022/10/22 10:59:43;;;;;;;1.85;0.30;;;20.70;90.10;;;;;;6184053;23;45427;-72
2022/10/22 11:02:55;;;;;;;1.40;0.50;;;20.70;90.10;;;;;;6184681;23;47615;-72
2022/10/22 11:05:31;;;;;;;0.75;0.45;;;20.80;90.20;;;;;;6185058;23;45198;-73
2022/10/22 11:08:01;;;;;;;1.48;0.47;;;20.80;90.10;;;;;;6183624;23;45228;-73
2022/10/22 11:10:31;;;;;;;1.52;0.40;;;20.80;90.10;;;;;;6184992;23;45202;-73
2022/10/22 11:13:05;;;;;;;3.72;0.95;;;20.80;90.10;;;;;;6180495;23;46529;-71
2022/10/22 11:15:34;;;;;;;1.08;0.60;;;20.80;90.70;;;;;;6181989;23;45239;-71
2022/10/22 11:18:08;;;;;;;3.80;0.70;;;20.80;90.60;;;;;;6184047;23;45205;-72
2022/10/22 11:20:44;;;;;;;3.13;0.50;;;20.70;90.50;;;;;;6183077;23;45377;-72
2022/10/22 11:23:16;;;;;;;3.10;0.68;;;20.80;90.60;;;;;;6183455;23;45731;-71
2022/10/22 11:25:45;;;;;;;4.78;0.40;;;20.70;90.50;;;;;;6183085;23;45296;-71
2022/10/22 11:28:18;;;;;;;2.20;0.60;;;20.80;90.60;;;;;;6183162;23;45288;-71
2022/10/22 11:34:22;;;;;;;3.85;0.70;;;20.80;91.80;;;;;;6187505;23;45602;-76
2022/10/22 11:36:50;;;;;;;1.38;0.50;;;20.80;91.50;;;;;;6186942;23;45230;-76
2022/10/22 11:39:39;;;;;;;3.00;0.80;;;20.70;91.40;;;;;;6188181;23;45205;-75
2022/10/22 11:49:01;;;;;;;1.20;0.50;;;21.00;91.40;;;;;;6187658;23;45276;-75
2022/10/22 11:51:32;;;;;;;1.98;0.40;;;20.70;91.40;;;;;;6187878;23;45206;-75
2022/10/22 11:54:02;;;;;;;1.67;0.70;;;20.70;91.40;;;;;;6188021;23;45424;-75
2022/10/22 11:56:38;;;;;;;1.17;0.50;;;20.70;91.40;;;;;;6187087;23;45454;-75
2022/10/22 11:59:38;;;;;;;0.98;0.68;;;20.70;91.50;;;;;;6187332;23;45161;-76
2022/10/22 12:05:39;;;;;;;1.50;0.52;;;20.70;91.60;;;;;;6187804;23;45234;-74
2022/10/22 12:08:26;;;;;;;2.38;0.43;;;20.70;91.60;;;;;;6187210;23;47721;-74
2022/10/22 12:14:20;;;;;;;2.55;0.57;;;20.70;91.70;;;;;;6187746;23;45047;-75
2022/10/22 12:16:52;;;;;;;1.90;0.65;;;20.70;91.70;;;;;;6187526;23;45435;-75
2022/10/22 12:35:56;;;;;;;1.05;0.60;;;20.90;91.90;;;;;;6071943;23;45303;-75
2022/10/22 12:38:24;;;;;;;1.30;0.50;;;20.60;91.80;;;;;;6187331;23;45177;-75
2022/10/22 12:40:55;;;;;;;3.88;0.57;;;20.60;91.90;;;;;;6187230;23;45542;-75
2022/10/22 12:43:25;;;;;;;1.08;0.38;;;20.60;91.90;;;;;;6186961;23;48365;-75
2022/10/22 12:45:57;;;;;;;1.00;0.40;;;20.60;91.90;;;;;;6187096;23;45267;-76
2022/10/22 12:48:29;;;;;;;1.48;0.50;;;20.60;91.90;;;;;;6187519;23;45095;-75
2022/10/22 12:51:00;;;;;;;1.05;0.50;;;20.60;91.90;;;;;;6187838;23;45281;-75
2022/10/22 12:53:30;;;;;;;0.77;0.60;;;20.60;92.00;;;;;;6187413;23;47947;-75
2022/10/22 12:56:30;;;;;;;2.00;0.40;;;20.60;92.00;;;;;;6187008;23;45112;-75
2022/10/22 12:58:59;;;;;;;1.05;0.40;;;20.60;92.00;;;;;;6187266;23;45180;-74
2022/10/22 13:01:27;;;;;;;2.63;0.60;;;20.60;92.00;;;;;;6187198;23;45293;-75
2022/10/22 13:04:06;;;;;;;2.25;0.70;;;20.60;92.00;;;;;;6186879;23;47352;-75
2022/10/22 13:06:37;;;;;;;0.80;0.28;;;20.60;92.00;;;;;;6187211;23;45158;-76
2022/10/22 13:12:37;;;;;;;0.73;0.20;;;20.60;92.10;;;;;;6067262;23;45147;-75
2022/10/22 13:15:20;;;;;;;14.52;1.20;;;20.70;91.90;;;;;;6062276;23;47384;-70
2022/10/22 13:17:48;;;;;;;13.60;1.75;;;20.70;93.30;;;;;;6170927;23;45526;-72
2022/10/22 13:20:21;;;;;;;5.45;1.17;;;20.80;93.50;;;;;;6183998;23;45279;-72
2022/10/22 13:22:59;;;;;;;4.32;0.70;;;20.90;93.30;;;;;;6184647;23;45142;-73
2022/10/22 13:25:28;;;;;;;4.10;0.80;;;21.00;93.00;;;;;;6183635;23;45778;-73
2022/10/22 13:27:57;;;;;;;4.47;0.60;;;21.10;92.80;;;;;;6184205;23;45354;-72
2022/10/22 13:30:26;;;;;;;4.97;1.00;;;21.30;92.60;;;;;;6184710;23;45426;-72
2022/10/22 13:32:55;;;;;;;1.30;0.57;;;21.50;92.40;;;;;;6184003;23;45419;-72
2022/10/22 13:35:25;;;;;;;1.70;0.70;;;21.60;92.40;;;;;;6183849;23;47754;-72
2022/10/22 13:37:52;;;;;;;2.38;0.70;;;21.70;92.30;;;;;;6183304;23;45501;-72
2022/10/22 13:40:21;;;;;;;5.90;0.68;;;21.80;92.40;;;;;;6182581;23;45255;-72